createdAt,value
2023-01-03T00:00:49.195Z,8.70
2023-01-03T00:01:44.277Z,8.70
2023-01-03T00:02:39.517Z,8.70
2023-01-03T00:03:35.604Z,8.71
2023-01-03T00:04:31.520Z,8.74
2023-01-03T00:05:25.839Z,8.75
2023-01-03T00:06:21.093Z,8.78
2023-01-03T00:07:16.266Z,8.78
2023-01-03T00:08:11.343Z,8.79
2023-01-03T00:09:06.540Z,8.75
2023-01-03T00:10:05.741Z,8.70
2023-01-03T00:11:00.797Z,8.64
2023-01-03T00:11:56.024Z,8.65
2023-01-03T00:12:51.113Z,8.67
2023-01-03T00:13:46.639Z,8.65
2023-01-03T00:14:41.731Z,8.63
2023-01-03T00:15:36.877Z,8.60
2023-01-03T00:16:32.016Z,8.60
2023-01-03T00:17:27.290Z,8.57
2023-01-03T00:18:22.235Z,8.56
2023-01-03T00:19:17.460Z,8.55
2023-01-03T00:20:12.595Z,8.52
2023-01-03T00:21:07.813Z,8.50
2023-01-03T00:22:02.899Z,8.50
2023-01-03T00:22:58.001Z,8.50
2023-01-03T00:23:53.102Z,8.48
2023-01-03T00:24:48.444Z,8.48
2023-01-03T00:25:43.556Z,8.48
2023-01-03T00:26:38.662Z,8.51
2023-01-03T00:27:33.752Z,8.53
2023-01-03T00:28:28.995Z,8.58
2023-01-03T00:29:24.082Z,8.62
2023-01-03T00:30:19.242Z,8.63
2023-01-03T00:31:14.376Z,8.65
2023-01-03T00:32:09.334Z,8.65
2023-01-03T00:34:29.867Z,8.27
2023-01-03T00:36:48.513Z,8.20
2023-01-03T00:37:43.632Z,8.40
2023-01-03T00:38:38.711Z,8.47
2023-01-03T00:39:33.855Z,8.51
2023-01-03T00:40:28.918Z,8.53
2023-01-03T00:41:24.134Z,8.55
2023-01-03T00:42:19.223Z,8.57
2023-01-03T00:43:14.435Z,8.59
2023-01-03T00:44:09.646Z,8.59
2023-01-03T00:45:04.602Z,8.56
2023-01-03T00:45:59.719Z,8.55
2023-01-03T00:46:54.943Z,8.55
2023-01-03T00:47:50.025Z,8.55
2023-01-03T00:48:45.128Z,8.55
2023-01-03T00:49:40.202Z,8.55
2023-01-03T00:50:35.415Z,8.54
2023-01-03T00:51:30.600Z,8.52
2023-01-03T00:52:25.840Z,8.51
2023-01-03T00:53:20.914Z,8.52
2023-01-03T00:54:16.148Z,8.53
2023-01-03T00:55:11.244Z,8.54
2023-01-03T00:56:06.553Z,8.54
2023-01-03T00:57:01.719Z,8.54
2023-01-03T00:57:56.826Z,8.55
2023-01-03T00:58:52.042Z,8.55
2023-01-03T00:59:47.160Z,8.55
2023-01-03T01:00:42.243Z,8.54
2023-01-03T01:01:44.236Z,8.54
2023-01-03T01:02:33.765Z,8.52
2023-01-03T01:03:27.979Z,8.52
2023-01-03T01:04:22.924Z,8.52
2023-01-03T01:05:18.020Z,8.53
2023-01-03T01:06:13.084Z,8.51
2023-01-03T01:07:08.452Z,8.49
2023-01-03T01:08:03.532Z,8.47
2023-01-03T01:08:58.603Z,8.44
2023-01-03T01:09:53.686Z,8.41
2023-01-03T01:10:48.903Z,8.39
2023-01-03T01:11:43.960Z,8.39
2023-01-03T01:12:39.076Z,8.40
2023-01-03T01:13:34.121Z,8.39
2023-01-03T01:14:29.351Z,8.40
2023-01-03T01:15:24.432Z,8.34
2023-01-03T01:16:19.684Z,8.29
2023-01-03T01:17:20.669Z,8.28
2023-01-03T01:18:11.063Z,8.30
2023-01-03T01:19:05.120Z,8.34
2023-01-03T01:20:00.223Z,8.39
2023-01-03T01:20:55.269Z,8.39
2023-01-03T01:21:50.500Z,8.39
2023-01-03T01:22:45.608Z,8.39
2023-01-03T01:23:40.678Z,8.37
2023-01-03T01:24:35.738Z,8.31
2023-01-03T01:25:30.914Z,8.26
2023-01-03T01:26:26.009Z,8.25
2023-01-03T01:27:21.219Z,8.26
2023-01-03T01:28:16.295Z,8.26
2023-01-03T01:29:12.197Z,8.27
2023-01-03T01:30:06.478Z,8.26
2023-01-03T01:31:01.770Z,8.26
2023-01-03T01:31:56.747Z,8.29
2023-01-03T01:32:51.861Z,8.30
2023-01-03T01:33:46.934Z,8.31
2023-01-03T01:34:42.139Z,8.29
2023-01-03T01:35:37.221Z,8.27
2023-01-03T01:36:32.461Z,8.26
2023-01-03T01:37:27.646Z,8.26
2023-01-03T01:38:22.741Z,8.25
2023-01-03T01:39:17.811Z,8.26
2023-01-03T01:40:12.951Z,8.26
2023-01-03T01:41:08.028Z,8.25
2023-01-03T01:42:03.261Z,8.24
2023-01-03T01:42:58.349Z,8.22
2023-01-03T01:43:53.559Z,8.21
2023-01-03T01:44:48.681Z,8.21
2023-01-03T01:45:43.868Z,8.20
2023-01-03T01:46:39.009Z,8.19
2023-01-03T01:47:34.244Z,8.17
2023-01-03T01:48:29.350Z,8.17
2023-01-03T01:49:24.422Z,8.18
2023-01-03T01:50:19.512Z,8.18
2023-01-03T01:51:14.715Z,8.17
2023-01-03T01:52:09.908Z,8.16
2023-01-03T01:53:05.030Z,8.16
2023-01-03T01:54:00.152Z,8.15
2023-01-03T01:54:55.224Z,8.16
2023-01-03T01:55:50.322Z,8.18
2023-01-03T01:56:45.430Z,8.21
2023-01-03T01:57:40.617Z,8.23
2023-01-03T01:58:35.742Z,8.25
2023-01-03T01:59:30.794Z,8.27
2023-01-03T02:00:26.016Z,8.29
2023-01-03T02:01:21.174Z,8.28
2023-01-03T02:02:16.329Z,8.26
2023-01-03T02:03:11.379Z,8.27
2023-01-03T02:04:06.515Z,8.28
2023-01-03T02:05:01.576Z,8.32
2023-01-03T02:05:56.819Z,8.33
2023-01-03T02:06:51.866Z,8.35
2023-01-03T02:07:47.189Z,8.37
2023-01-03T02:08:42.429Z,8.37
2023-01-03T02:09:37.393Z,8.37
2023-01-03T02:10:32.482Z,8.37
2023-01-03T02:11:27.709Z,8.36
2023-01-03T02:12:22.809Z,8.35
2023-01-03T02:13:17.924Z,8.37
2023-01-03T02:14:12.986Z,8.38
2023-01-03T02:15:08.218Z,8.39
2023-01-03T02:16:03.431Z,8.39
2023-01-03T02:16:58.549Z,8.38
2023-01-03T02:17:53.757Z,8.39
2023-01-03T02:18:48.846Z,8.41
2023-01-03T02:19:43.925Z,8.43
2023-01-03T02:20:39.011Z,8.42
2023-01-03T02:21:34.074Z,8.41
2023-01-03T02:22:29.271Z,8.41
2023-01-03T02:23:24.371Z,8.42
2023-01-03T02:24:19.580Z,8.42
2023-01-03T02:25:14.638Z,8.40
2023-01-03T02:26:09.870Z,8.40
2023-01-03T02:27:04.933Z,8.39
2023-01-03T02:28:00.297Z,8.37
2023-01-03T02:28:55.251Z,8.36
2023-01-03T02:29:50.494Z,8.36
2023-01-03T02:30:45.595Z,8.35
2023-01-03T02:31:40.767Z,8.34
2023-01-03T02:32:35.884Z,8.32
2023-01-03T02:33:31.115Z,8.30
2023-01-03T02:34:26.156Z,8.29
2023-01-03T02:35:21.390Z,8.29
2023-01-03T02:36:16.462Z,8.29
2023-01-03T02:37:11.669Z,8.28
2023-01-03T02:38:06.896Z,8.27
2023-01-03T02:39:02.014Z,8.24
2023-01-03T02:39:57.077Z,8.21
2023-01-03T02:40:52.199Z,8.19
2023-01-03T02:41:47.268Z,8.16
2023-01-03T02:42:42.498Z,8.13
2023-01-03T02:43:37.595Z,8.12
2023-01-03T02:44:32.809Z,8.10
2023-01-03T02:45:27.869Z,8.10
2023-01-03T02:46:23.030Z,8.10
2023-01-03T02:47:18.099Z,8.11
2023-01-03T02:48:13.442Z,8.12
2023-01-03T02:49:08.537Z,8.12
2023-01-03T02:50:03.609Z,8.11
2023-01-03T02:50:58.718Z,8.11
2023-01-03T02:51:53.914Z,8.11
2023-01-03T02:52:49.092Z,8.10
2023-01-03T02:53:44.195Z,8.10
2023-01-03T02:54:39.408Z,8.10
2023-01-03T02:55:34.452Z,8.09
2023-01-03T02:56:29.529Z,8.09
2023-01-03T02:57:24.778Z,8.09
2023-01-03T02:58:19.970Z,8.08
2023-01-03T02:59:15.070Z,8.09
2023-01-03T03:00:10.264Z,8.10
2023-01-03T03:01:05.434Z,8.07
2023-01-03T03:02:00.641Z,8.06
2023-01-03T03:02:55.733Z,8.06
2023-01-03T03:03:50.844Z,8.06
2023-01-03T03:04:45.906Z,8.07
2023-01-03T03:05:41.086Z,8.08
2023-01-03T03:06:36.313Z,8.08
2023-01-03T03:07:31.379Z,8.09
2023-01-03T03:08:26.720Z,8.10
2023-01-03T03:09:21.809Z,8.11
2023-01-03T03:10:16.897Z,8.09
2023-01-03T03:11:11.962Z,8.07
2023-01-03T03:12:07.176Z,8.06
2023-01-03T03:13:02.257Z,8.06
2023-01-03T03:13:57.377Z,8.07
2023-01-03T03:14:52.416Z,8.06
2023-01-03T03:15:47.661Z,8.06
2023-01-03T03:16:42.740Z,8.06
2023-01-03T03:17:38.365Z,8.06
2023-01-03T03:18:33.139Z,8.08
2023-01-03T03:19:28.234Z,8.10
2023-01-03T03:20:23.364Z,8.13
2023-01-03T03:21:18.491Z,8.15
2023-01-03T03:22:13.540Z,8.17
2023-01-03T03:23:08.773Z,8.17
2023-01-03T03:24:04.107Z,8.17
2023-01-03T03:24:59.051Z,8.16
2023-01-03T03:25:54.247Z,8.16
2023-01-03T03:26:49.363Z,8.16
2023-01-03T03:27:44.522Z,8.14
2023-01-03T03:28:39.779Z,8.15
2023-01-03T03:29:34.884Z,8.15
2023-01-03T03:30:30.074Z,8.12
2023-01-03T03:31:25.435Z,8.11
2023-01-03T03:32:20.401Z,8.09
2023-01-03T03:33:15.607Z,8.09
2023-01-03T03:34:10.699Z,8.09
2023-01-03T03:35:05.917Z,8.06
2023-01-03T03:36:01.001Z,8.03
2023-01-03T03:36:56.383Z,8.00
2023-01-03T03:37:51.145Z,7.93
2023-01-03T03:38:46.505Z,7.88
2023-01-03T03:39:41.610Z,7.86
2023-01-03T03:40:36.765Z,7.86
2023-01-03T03:41:31.738Z,7.87
2023-01-03T03:42:26.954Z,7.92
2023-01-03T03:43:22.124Z,7.95
2023-01-03T03:44:17.194Z,7.99
2023-01-03T03:45:12.283Z,8.01
2023-01-03T03:46:07.389Z,8.01
2023-01-03T03:47:05.472Z,8.01
2023-01-03T03:47:57.682Z,8.00
2023-01-03T03:48:52.863Z,8.00
2023-01-03T03:49:47.972Z,8.02
2023-01-03T03:50:43.073Z,8.04
2023-01-03T03:51:38.218Z,8.07
2023-01-03T03:52:33.265Z,8.07
2023-01-03T03:53:28.491Z,8.07
2023-01-03T03:54:23.569Z,8.06
2023-01-03T03:55:18.783Z,8.04
2023-01-03T03:56:13.908Z,8.01
2023-01-03T03:57:09.005Z,7.98
2023-01-03T03:58:04.059Z,7.97
2023-01-03T03:58:59.389Z,7.95
2023-01-03T03:59:54.519Z,7.93
2023-01-03T04:00:49.657Z,7.92
2023-01-03T04:01:44.805Z,7.90
2023-01-03T04:02:39.809Z,7.88
2023-01-03T04:03:35.049Z,7.87
2023-01-03T04:04:30.084Z,7.86
2023-01-03T04:05:25.139Z,7.86
2023-01-03T04:06:20.392Z,7.86
2023-01-03T04:07:15.478Z,7.86
2023-01-03T04:08:10.703Z,7.85
2023-01-03T04:09:05.917Z,7.84
2023-01-03T04:10:01.155Z,7.81
2023-01-03T04:10:56.098Z,7.80
2023-01-03T04:11:51.212Z,7.78
2023-01-03T04:12:46.263Z,7.75
2023-01-03T04:13:41.461Z,7.72
2023-01-03T04:14:36.578Z,7.70
2023-01-03T04:15:31.814Z,7.70
2023-01-03T04:16:26.928Z,7.70
2023-01-03T04:17:22.062Z,7.71
2023-01-03T04:18:17.125Z,7.72
2023-01-03T04:19:12.522Z,7.72
2023-01-03T04:20:07.485Z,7.73
2023-01-03T04:21:02.715Z,7.75
2023-01-03T04:21:57.796Z,7.77
2023-01-03T04:22:53.090Z,7.80
2023-01-03T04:23:48.153Z,7.81
2023-01-03T04:24:43.381Z,7.79
2023-01-03T04:25:38.647Z,7.78
2023-01-03T04:26:33.759Z,7.79
2023-01-03T04:27:28.835Z,7.80
2023-01-03T04:28:24.062Z,7.82
2023-01-03T04:29:19.290Z,7.84
2023-01-03T04:30:14.412Z,7.85
2023-01-03T04:31:09.536Z,7.86
2023-01-03T04:32:04.724Z,7.89
2023-01-03T04:32:59.830Z,7.89
2023-01-03T04:33:55.047Z,7.89
2023-01-03T04:34:50.123Z,7.90
2023-01-03T04:35:45.332Z,7.89
2023-01-03T04:36:40.425Z,7.88
2023-01-03T04:37:35.597Z,7.87
2023-01-03T04:38:30.652Z,7.87
2023-01-03T04:39:25.993Z,7.89
2023-01-03T04:40:21.092Z,7.88
2023-01-03T04:41:16.177Z,7.89
2023-01-03T04:42:11.289Z,7.89
2023-01-03T04:43:06.365Z,7.88
2023-01-03T04:44:01.593Z,7.87
2023-01-03T04:44:56.724Z,7.85
2023-01-03T04:45:52.002Z,7.84
2023-01-03T04:46:52.470Z,7.82
2023-01-03T04:47:43.156Z,7.78
2023-01-03T04:48:37.358Z,7.76
2023-01-03T04:49:32.562Z,7.74
2023-01-03T04:50:27.668Z,7.72
2023-01-03T04:51:22.719Z,7.72
2023-01-03T04:52:17.893Z,7.72
2023-01-03T04:53:13.026Z,7.72
2023-01-03T04:54:08.130Z,7.72
2023-01-03T04:55:03.204Z,7.73
2023-01-03T04:55:58.413Z,7.73
2023-01-03T04:56:53.474Z,7.74
2023-01-03T04:57:48.610Z,7.74
2023-01-03T04:58:43.695Z,7.75
2023-01-03T04:59:38.955Z,7.74
2023-01-03T05:00:34.045Z,7.76
2023-01-03T05:01:29.234Z,7.77
2023-01-03T05:02:24.365Z,7.75
2023-01-03T05:03:24.126Z,7.73
2023-01-03T05:04:15.640Z,7.71
2023-01-03T05:05:09.680Z,7.72
2023-01-03T05:06:04.739Z,7.73
2023-01-03T05:06:59.992Z,7.75
2023-01-03T05:07:55.058Z,7.73
2023-01-03T05:08:50.355Z,7.74
2023-01-03T05:09:45.543Z,7.74
2023-01-03T05:10:40.664Z,7.73
2023-01-03T05:11:35.754Z,7.73
2023-01-03T05:12:30.952Z,7.74
2023-01-03T05:13:26.001Z,7.75
2023-01-03T05:14:21.224Z,7.76
2023-01-03T05:15:16.330Z,7.77
2023-01-03T05:16:11.639Z,7.77
2023-01-03T05:17:06.695Z,7.77
2023-01-03T05:18:01.770Z,7.76
2023-01-03T05:18:56.959Z,7.75
2023-01-03T05:19:52.628Z,7.73
2023-01-03T05:20:47.314Z,7.69
2023-01-03T05:21:42.523Z,7.68
2023-01-03T05:22:37.755Z,7.67
2023-01-03T05:23:32.843Z,7.67
2023-01-03T05:24:27.905Z,7.67
2023-01-03T05:25:23.002Z,7.67
2023-01-03T05:26:18.248Z,7.67
2023-01-03T05:27:13.331Z,7.68
2023-01-03T05:28:12.362Z,7.65
2023-01-03T05:29:04.524Z,7.62
2023-01-03T05:29:58.669Z,7.63
2023-01-03T05:30:53.905Z,7.64
2023-01-03T05:31:49.242Z,7.67
2023-01-03T05:32:44.139Z,7.68
2023-01-03T05:33:39.198Z,7.68
2023-01-03T05:34:34.626Z,7.68
2023-01-03T05:35:29.570Z,7.68
2023-01-03T05:36:24.783Z,7.68
2023-01-03T05:37:19.878Z,7.70
2023-01-03T05:38:15.114Z,7.72
2023-01-03T05:39:10.226Z,7.73
2023-01-03T05:40:05.374Z,7.73
2023-01-03T05:41:00.441Z,7.74
2023-01-03T05:41:55.654Z,7.74
2023-01-03T05:42:50.772Z,7.74
2023-01-03T05:43:45.887Z,7.75
2023-01-03T05:44:41.085Z,7.74
2023-01-03T05:45:36.212Z,7.73
2023-01-03T05:46:31.359Z,7.72
2023-01-03T05:47:26.523Z,7.70
2023-01-03T05:48:21.584Z,7.69
2023-01-03T05:49:16.801Z,7.68
2023-01-03T05:50:11.944Z,7.67
2023-01-03T05:51:07.060Z,7.66
2023-01-03T05:52:02.115Z,7.66
2023-01-03T05:52:57.218Z,7.66
2023-01-03T05:53:52.272Z,7.65
2023-01-03T05:54:47.676Z,7.64
2023-01-03T05:55:42.635Z,7.63
2023-01-03T05:56:37.858Z,7.63
2023-01-03T05:57:35.502Z,7.63
2023-01-03T05:58:28.141Z,7.64
2023-01-03T05:59:23.450Z,7.67
2023-01-03T06:00:18.586Z,7.69
2023-01-03T06:01:13.678Z,7.70
2023-01-03T06:02:08.949Z,7.69
2023-01-03T06:03:04.085Z,7.66
2023-01-03T06:03:59.321Z,7.63
2023-01-03T06:04:54.445Z,7.60
2023-01-03T06:05:50.569Z,7.56
2023-01-03T06:06:44.688Z,7.54
2023-01-03T06:07:39.992Z,7.52
2023-01-03T06:08:35.076Z,7.52
2023-01-03T06:09:30.361Z,7.52
2023-01-03T06:10:25.508Z,7.53
2023-01-03T06:11:20.553Z,7.57
2023-01-03T06:12:15.631Z,7.60
2023-01-03T06:13:10.845Z,7.62
2023-01-03T06:14:06.078Z,7.64
2023-01-03T06:15:01.060Z,7.63
2023-01-03T06:15:56.151Z,7.61
2023-01-03T06:16:51.614Z,7.62
2023-01-03T06:17:46.464Z,7.62
2023-01-03T06:18:41.684Z,7.63
2023-01-03T06:19:36.889Z,7.67
2023-01-03T06:20:32.088Z,7.70
2023-01-03T06:21:27.192Z,7.70
2023-01-03T06:22:22.368Z,7.70
2023-01-03T06:23:17.527Z,7.71
2023-01-03T06:24:12.784Z,7.72
2023-01-03T06:25:07.874Z,7.69
2023-01-03T06:26:03.088Z,7.69
2023-01-03T06:26:58.179Z,7.68
2023-01-03T06:27:53.439Z,7.67
2023-01-03T06:28:48.519Z,7.66
2023-01-03T06:29:43.989Z,7.67
2023-01-03T06:30:39.060Z,7.67
2023-01-03T06:31:34.119Z,7.66
2023-01-03T06:32:29.167Z,7.63
2023-01-03T06:33:24.423Z,7.62
2023-01-03T06:34:19.576Z,7.59
2023-01-03T06:35:14.687Z,7.57
2023-01-03T06:36:09.858Z,7.56
2023-01-03T06:37:04.931Z,7.56
2023-01-03T06:38:00.060Z,7.58
2023-01-03T06:38:55.158Z,7.60
2023-01-03T06:39:50.500Z,7.61
2023-01-03T06:40:45.976Z,7.64
2023-01-03T06:41:40.645Z,7.65
2023-01-03T06:42:35.758Z,7.65
2023-01-03T06:43:30.866Z,7.64
2023-01-03T06:44:25.967Z,7.63
2023-01-03T06:45:21.061Z,7.61
2023-01-03T06:46:16.336Z,7.60
2023-01-03T06:47:11.495Z,7.58
2023-01-03T06:48:06.629Z,7.57
2023-01-03T06:49:01.689Z,7.57
2023-01-03T06:49:57.133Z,7.57
2023-01-03T06:50:52.085Z,7.57
2023-01-03T06:51:47.337Z,7.58
2023-01-03T06:52:42.464Z,7.59
2023-01-03T06:53:37.579Z,7.58
2023-01-03T06:54:32.656Z,7.57
2023-01-03T06:55:27.831Z,7.57
2023-01-03T06:56:23.139Z,7.59
2023-01-03T06:57:25.968Z,7.60
2023-01-03T06:58:14.269Z,7.59
2023-01-03T06:59:08.552Z,7.59
2023-01-03T07:00:03.841Z,7.58
2023-01-03T07:00:58.930Z,7.57
2023-01-03T07:01:54.164Z,7.57
2023-01-03T07:02:49.415Z,7.58
2023-01-03T07:03:44.527Z,7.58
2023-01-03T07:04:39.717Z,7.58
2023-01-03T07:05:34.759Z,7.57
2023-01-03T07:06:30.043Z,7.55
2023-01-03T07:07:25.157Z,7.54
2023-01-03T07:08:20.407Z,7.51
2023-01-03T07:09:15.541Z,7.50
2023-01-03T07:10:10.956Z,7.49
2023-01-03T07:11:05.990Z,7.50
2023-01-03T07:12:01.302Z,7.51
2023-01-03T07:12:56.299Z,7.52
2023-01-03T07:13:51.638Z,7.52
2023-01-03T07:14:46.990Z,7.51
2023-01-03T07:15:42.177Z,7.50
2023-01-03T07:16:37.390Z,7.50
2023-01-03T07:17:32.622Z,7.48
2023-01-03T07:18:27.814Z,7.47
2023-01-03T07:19:23.160Z,7.47
2023-01-03T07:20:18.516Z,7.46
2023-01-03T07:21:13.614Z,7.45
2023-01-03T07:22:08.832Z,7.44
2023-01-03T07:23:04.047Z,7.43
2023-01-03T07:23:59.613Z,7.40
2023-01-03T07:24:54.609Z,7.38
2023-01-03T07:25:49.916Z,7.37
2023-01-03T07:26:45.191Z,7.37
2023-01-03T07:27:40.496Z,7.38
2023-01-03T07:28:35.750Z,7.38
2023-01-03T07:29:31.181Z,7.40
2023-01-03T07:30:26.589Z,7.42
2023-01-03T07:31:21.842Z,7.45
2023-01-03T07:32:17.087Z,7.50
2023-01-03T07:33:12.355Z,7.53
2023-01-03T07:34:07.623Z,7.53
2023-01-03T07:35:02.961Z,7.54
2023-01-03T07:35:58.127Z,7.55
2023-01-03T07:36:53.371Z,7.55
2023-01-03T07:37:48.603Z,7.54
2023-01-03T07:38:43.892Z,7.53
2023-01-03T07:39:39.138Z,7.52
2023-01-03T07:40:34.532Z,7.52
2023-01-03T07:41:29.686Z,7.51
2023-01-03T07:42:24.959Z,7.52
2023-01-03T07:43:20.239Z,7.53
2023-01-03T07:44:15.564Z,7.54
2023-01-03T07:45:10.800Z,7.54
2023-01-03T07:46:06.253Z,7.51
2023-01-03T07:47:01.541Z,7.49
2023-01-03T07:47:56.966Z,7.48
2023-01-03T07:48:52.179Z,7.48
2023-01-03T07:49:47.542Z,7.47
2023-01-03T07:50:43.006Z,7.48
2023-01-03T07:51:38.190Z,7.48
2023-01-03T07:52:33.479Z,7.47
2023-01-03T07:53:28.829Z,7.46
2023-01-03T07:54:24.072Z,7.47
2023-01-03T07:55:19.353Z,7.49
2023-01-03T07:56:14.679Z,7.53
2023-01-03T07:57:09.909Z,7.55
2023-01-03T07:58:05.160Z,7.57
2023-01-03T07:59:00.428Z,7.57
2023-01-03T07:59:55.708Z,7.56
2023-01-03T08:00:51.111Z,7.54
2023-01-03T08:01:46.380Z,7.54
2023-01-03T08:02:41.782Z,7.54
2023-01-03T08:03:36.897Z,7.54
2023-01-03T08:04:32.304Z,7.56
2023-01-03T08:05:27.540Z,7.57
2023-01-03T08:06:22.833Z,7.57
2023-01-03T08:07:18.180Z,7.58
2023-01-03T08:08:13.506Z,7.58
2023-01-03T08:09:08.846Z,7.57
2023-01-03T08:10:04.184Z,7.56
2023-01-03T08:10:59.614Z,7.58
2023-01-03T08:11:54.816Z,7.59
2023-01-03T08:12:50.395Z,7.58
2023-01-03T08:13:45.462Z,7.60
2023-01-03T08:14:40.772Z,7.63
2023-01-03T08:15:36.170Z,7.64
2023-01-03T08:16:31.450Z,7.66
2023-01-03T08:17:26.771Z,7.68
2023-01-03T08:18:22.082Z,7.69
2023-01-03T08:19:17.465Z,7.70
2023-01-03T08:20:12.782Z,7.70
2023-01-03T08:21:08.376Z,7.71
2023-01-03T08:22:03.417Z,7.72
2023-01-03T08:22:58.753Z,7.71
2023-01-03T08:23:54.148Z,7.70
2023-01-03T08:24:49.470Z,7.71
2023-01-03T08:25:44.798Z,7.70
2023-01-03T08:26:40.168Z,7.68
2023-01-03T08:27:35.430Z,7.65
2023-01-03T08:28:30.750Z,7.64
2023-01-03T08:29:26.506Z,7.63
2023-01-03T08:30:21.413Z,7.63
2023-01-03T08:31:16.935Z,7.63
2023-01-03T08:32:12.227Z,7.63
2023-01-03T08:33:07.515Z,7.62
2023-01-03T08:34:02.853Z,7.60
2023-01-03T08:34:58.145Z,7.62
2023-01-03T08:35:53.447Z,7.64
2023-01-03T08:36:48.771Z,7.68
2023-01-03T08:37:44.081Z,7.70
2023-01-03T08:38:39.358Z,7.70
2023-01-03T08:39:34.770Z,7.68
2023-01-03T08:40:30.158Z,7.67
2023-01-03T08:41:25.679Z,7.66
2023-01-03T08:42:20.947Z,7.65
2023-01-03T08:43:16.322Z,7.63
2023-01-03T08:44:11.689Z,7.62
2023-01-03T08:45:07.068Z,7.62
2023-01-03T08:46:02.413Z,7.62
2023-01-03T08:46:57.823Z,7.66
2023-01-03T08:47:53.021Z,7.67
2023-01-03T08:48:48.415Z,7.67
2023-01-03T08:49:43.630Z,7.69
2023-01-03T08:50:39.062Z,7.69
2023-01-03T08:51:34.554Z,7.68
2023-01-03T08:52:34.864Z,7.68
2023-01-03T08:53:26.234Z,7.68
2023-01-03T08:54:20.588Z,7.69
2023-01-03T08:55:15.944Z,7.72
2023-01-03T08:56:11.338Z,7.76
2023-01-03T08:57:06.745Z,7.81
2023-01-03T08:58:02.185Z,7.85
2023-01-03T08:58:57.685Z,7.86
2023-01-03T08:59:52.948Z,7.87
2023-01-03T09:00:48.286Z,7.86
2023-01-03T09:01:43.945Z,7.85
2023-01-03T09:02:39.303Z,7.84
2023-01-03T09:03:34.618Z,7.84
2023-01-03T09:04:29.813Z,7.85
2023-01-03T09:05:25.182Z,7.86
2023-01-03T09:06:20.536Z,7.85
2023-01-03T09:07:15.952Z,7.84
2023-01-03T09:08:11.408Z,7.86
2023-01-03T09:09:06.954Z,7.86
2023-01-03T09:10:02.229Z,7.85
2023-01-03T09:10:57.608Z,7.87
2023-01-03T09:11:52.980Z,7.89
2023-01-03T09:12:48.352Z,7.90
2023-01-03T09:13:43.689Z,7.91
2023-01-03T09:14:39.100Z,7.91
2023-01-03T09:15:34.466Z,7.94
2023-01-03T09:16:29.988Z,7.96
2023-01-03T09:17:25.270Z,7.98
2023-01-03T09:18:20.821Z,8.00
2023-01-03T09:19:16.289Z,8.04
2023-01-03T09:20:11.576Z,8.10
2023-01-03T09:21:06.959Z,8.17
2023-01-03T09:22:02.383Z,8.22
2023-01-03T09:22:57.744Z,8.28
2023-01-03T09:23:53.284Z,8.35
2023-01-03T09:24:48.550Z,8.47
2023-01-03T09:25:43.953Z,8.58
2023-01-03T09:26:39.329Z,8.65
2023-01-03T09:27:34.622Z,8.61
2023-01-03T09:28:30.002Z,8.58
2023-01-03T09:29:25.530Z,8.53
2023-01-03T09:30:20.792Z,8.48
2023-01-03T09:31:16.229Z,8.47
2023-01-03T09:32:11.591Z,8.47
2023-01-03T09:33:06.954Z,8.50
2023-01-03T09:34:02.373Z,8.51
2023-01-03T09:34:57.816Z,8.49
2023-01-03T09:35:53.172Z,8.45
2023-01-03T09:36:48.558Z,8.44
2023-01-03T09:37:48.677Z,8.44
2023-01-03T09:38:40.398Z,8.39
2023-01-03T09:39:34.855Z,8.37
2023-01-03T09:40:30.262Z,8.32
2023-01-03T09:41:25.610Z,8.23
2023-01-03T09:42:21.017Z,8.19
2023-01-03T09:43:21.367Z,8.14
2023-01-03T09:44:13.025Z,8.06
2023-01-03T09:45:08.092Z,8.02
2023-01-03T09:46:02.699Z,8.01
2023-01-03T09:46:58.159Z,8.02
2023-01-03T09:47:53.594Z,7.98
2023-01-03T09:48:48.972Z,8.00
2023-01-03T09:50:11.580Z,8.02
2023-01-03T09:51:14.045Z,7.98
2023-01-03T09:51:36.198Z,7.95
2023-01-03T09:52:30.640Z,7.99
2023-01-03T09:53:26.116Z,8.01
2023-01-03T09:54:21.343Z,8.03
2023-01-03T09:55:16.712Z,8.00
2023-01-03T09:56:12.207Z,8.01
2023-01-03T09:57:07.466Z,8.05
2023-01-03T09:58:02.812Z,8.09
2023-01-03T09:58:58.237Z,8.10
2023-01-03T09:59:53.625Z,8.08
2023-01-03T10:00:49.111Z,8.08
2023-01-03T10:01:44.601Z,8.08
2023-01-03T10:02:39.938Z,8.10
2023-01-03T10:03:35.248Z,8.12
2023-01-03T10:04:30.596Z,8.12
2023-01-03T10:05:25.977Z,8.11
2023-01-03T10:06:21.548Z,8.11
2023-01-03T10:07:16.808Z,8.12
2023-01-03T10:08:12.194Z,8.16
2023-01-03T10:09:07.611Z,8.22
2023-01-03T10:10:03.041Z,8.30
2023-01-03T10:10:58.418Z,8.42
2023-01-03T10:11:53.796Z,8.48
2023-01-03T10:12:49.153Z,8.49
2023-01-03T10:13:44.543Z,8.51
2023-01-03T10:14:39.961Z,8.58
2023-01-03T10:15:35.365Z,8.60
2023-01-03T10:16:30.954Z,8.64
2023-01-03T10:17:26.070Z,8.62
2023-01-03T10:18:21.441Z,8.62
2023-01-03T10:19:16.881Z,8.65
2023-01-03T10:20:12.311Z,8.70
2023-01-03T10:21:07.716Z,8.72
2023-01-03T10:22:03.134Z,8.75
2023-01-03T10:22:58.518Z,8.76
2023-01-03T10:23:53.899Z,8.80
2023-01-03T10:24:49.289Z,8.86
2023-01-03T10:25:44.668Z,8.83
2023-01-03T10:26:40.152Z,8.80
2023-01-03T10:27:35.450Z,8.79
2023-01-03T10:28:30.840Z,8.75
2023-01-03T10:29:26.235Z,8.73
2023-01-03T10:30:21.635Z,8.74
2023-01-03T10:31:17.097Z,8.75
2023-01-03T10:32:12.596Z,8.76
2023-01-03T10:33:07.854Z,8.76
2023-01-03T10:34:03.217Z,8.78
2023-01-03T10:34:58.589Z,8.80
2023-01-03T10:35:54.036Z,8.81
2023-01-03T10:36:49.515Z,8.79
2023-01-03T10:37:44.748Z,8.79
2023-01-03T10:38:46.485Z,8.78
2023-01-03T10:39:36.500Z,8.71
2023-01-03T10:40:30.772Z,8.70
2023-01-03T10:41:26.180Z,8.78
2023-01-03T10:42:21.605Z,8.84
2023-01-03T10:43:16.967Z,8.84
2023-01-03T10:44:12.592Z,8.86
2023-01-03T10:45:07.878Z,8.87
2023-01-03T10:46:03.278Z,8.89
2023-01-03T10:46:58.684Z,8.90
2023-01-03T10:47:54.015Z,8.94
2023-01-03T10:49:45.834Z,9.04
2023-01-03T10:50:40.298Z,9.15
2023-01-03T10:51:42.285Z,9.24
2023-01-03T10:52:32.160Z,9.32
2023-01-03T10:53:26.420Z,9.36
2023-01-03T10:54:21.929Z,9.34
2023-01-03T10:55:17.214Z,9.30
2023-01-03T10:56:12.560Z,9.27
2023-01-03T10:57:07.945Z,9.29
2023-01-03T10:58:03.333Z,9.33
2023-01-03T10:58:58.690Z,9.40
2023-01-03T10:59:54.159Z,9.45
2023-01-03T11:00:49.445Z,9.47
2023-01-03T11:01:44.980Z,9.45
2023-01-03T11:02:40.310Z,9.41
2023-01-03T11:03:35.711Z,9.42
2023-01-03T11:04:31.149Z,9.38
2023-01-03T11:05:26.728Z,9.33
2023-01-03T11:06:21.728Z,9.37
2023-01-03T11:07:17.176Z,9.37
2023-01-03T11:08:12.445Z,9.42
2023-01-03T11:09:07.848Z,9.52
2023-01-03T11:10:03.257Z,9.55
2023-01-03T11:10:58.635Z,9.65
2023-01-03T11:11:54.150Z,9.73
2023-01-03T11:12:50.668Z,9.80
2023-01-03T11:13:45.938Z,9.85
2023-01-03T11:14:41.454Z,9.90
2023-01-03T11:15:39.139Z,9.84
2023-01-03T11:16:32.241Z,9.80
2023-01-03T11:17:27.561Z,9.77
2023-01-03T11:18:22.921Z,9.76
2023-01-03T11:19:18.287Z,9.65
2023-01-03T11:20:13.704Z,9.61
2023-01-03T11:21:09.098Z,9.56
2023-01-03T11:22:04.219Z,9.57
2023-01-03T11:22:59.236Z,9.56
2023-01-03T11:23:54.329Z,9.51
2023-01-03T11:24:49.339Z,9.51
2023-01-03T11:25:44.417Z,9.45
2023-01-03T11:26:39.532Z,9.43
2023-01-03T11:27:34.535Z,9.34
2023-01-03T11:28:31.937Z,9.19
2023-01-03T11:29:27.078Z,9.13
2023-01-03T11:30:22.208Z,9.08
2023-01-03T11:31:17.206Z,9.13
2023-01-03T11:32:12.362Z,9.23
2023-01-03T11:33:07.421Z,9.33
2023-01-03T11:34:02.404Z,9.40
2023-01-03T11:35:22.895Z,9.45
2023-01-03T11:35:54.229Z,9.42
2023-01-03T11:36:48.946Z,9.44
2023-01-03T11:37:44.084Z,9.44
2023-01-03T11:38:39.489Z,9.39
2023-01-03T11:39:34.880Z,9.38
2023-01-03T11:40:30.414Z,9.40
2023-01-03T11:41:25.690Z,9.38
2023-01-03T11:42:21.197Z,9.32
2023-01-03T11:43:16.704Z,9.24
2023-01-03T11:44:12.091Z,9.05
2023-01-03T11:45:07.497Z,9.02
2023-01-03T11:46:02.912Z,9.01
2023-01-03T11:46:58.326Z,9.00
2023-01-03T11:47:53.695Z,9.04
2023-01-03T11:48:49.134Z,9.09
2023-01-03T11:49:44.495Z,9.22
2023-01-03T11:50:40.019Z,9.38
2023-01-03T11:51:39.462Z,9.51
2023-01-03T11:52:34.836Z,9.66
2023-01-03T11:53:30.183Z,9.74
2023-01-03T11:54:25.603Z,9.78
2023-01-03T11:55:20.985Z,9.87
2023-01-03T11:56:16.472Z,10.04
2023-01-03T11:57:11.921Z,10.32
2023-01-03T11:58:07.378Z,10.46
2023-01-03T11:59:02.790Z,10.68
2023-01-03T11:59:58.273Z,10.92
2023-01-03T12:00:53.686Z,11.12
2023-01-03T12:01:49.391Z,11.24
2023-01-03T12:02:44.806Z,11.47
2023-01-03T12:03:40.326Z,11.78
2023-01-03T12:04:35.740Z,12.11
2023-01-03T12:05:30.708Z,12.08
2023-01-03T12:06:29.000Z,12.22
2023-01-03T12:08:16.850Z,12.42
2023-01-03T12:09:10.963Z,11.87
2023-01-03T12:10:06.021Z,11.78
2023-01-03T12:11:01.078Z,11.91
2023-01-03T12:11:56.119Z,11.78
2023-01-03T12:12:51.157Z,11.67
2023-01-03T12:13:46.190Z,11.64
2023-01-03T12:14:43.394Z,11.14
2023-01-03T12:15:38.781Z,10.67
2023-01-03T12:16:34.286Z,10.47
2023-01-03T12:17:29.648Z,10.33
2023-01-03T12:18:25.357Z,10.25
2023-01-03T12:19:20.524Z,10.45